sensor_id;sensor_type;location;lat;lon;timestamp;P1;durP1;ratioP1;P2;durP2;ratioP2
12114;SDS011;6121;49.810;6.418;2022-09-21T00:02:23;13.48;;;12.00;;
12114;SDS011;6121;49.810;6.418;2022-09-21T00:04:48;13.33;;;11.50;;
12114;SDS011;6121;49.810;6.418;2022-09-21T00:07:14;11.70;;;9.85;;
12114;SDS011;6121;49.810;6.418;2022-09-21T00:09:40;16.83;;;13.20;;
12114;SDS011;6121;49.810;6.418;2022-09-21T00:12:06;14.18;;;12.02;;
12114;SDS011;6121;49.810;6.418;2022-09-21T00:14:31;13.93;;;11.57;;
12114;SDS011;6121;49.810;6.418;2022-09-21T00:16:57;10.55;;;9.43;;
12114;SDS011;6121;49.810;6.418;2022-09-21T00:19:22;15.20;;;12.07;;
12114;SDS011;6121;49.810;6.418;2022-09-21T00:21:48;14.30;;;12.83;;
12114;SDS011;6121;49.810;6.418;2022-09-21T00:24:17;17.35;;;14.27;;
12114;SDS011;6121;49.810;6.418;2022-09-21T00:26:43;23.52;;;21.52;;
12114;SDS011;6121;49.810;6.418;2022-09-21T00:29:08;25.88;;;23.73;;
12114;SDS011;6121;49.810;6.418;2022-09-21T00:31:34;26.98;;;24.90;;
12114;SDS011;6121;49.810;6.418;2022-09-21T00:34:00;31.40;;;28.83;;
12114;SDS011;6121;49.810;6.418;2022-09-21T00:36:27;20.15;;;18.40;;
12114;SDS011;6121;49.810;6.418;2022-09-21T00:38:54;33.10;;;30.63;;
12114;SDS011;6121;49.810;6.418;2022-09-21T00:41:21;32.88;;;30.33;;
12114;SDS011;6121;49.810;6.418;2022-09-21T00:44:06;26.92;;;24.92;;
12114;SDS011;6121;49.810;6.418;2022-09-21T00:46:45;29.05;;;26.90;;
12114;SDS011;6121;49.810;6.418;2022-09-21T00:49:12;17.70;;;16.10;;
12114;SDS011;6121;49.810;6.418;2022-09-21T00:51:38;30.20;;;27.38;;
12114;SDS011;6121;49.810;6.418;2022-09-21T00:54:05;30.20;;;27.75;;
12114;SDS011;6121;49.810;6.418;2022-09-21T00:56:36;14.80;;;13.30;;
12114;SDS011;6121;49.810;6.418;2022-09-21T00:59:03;16.92;;;14.68;;
12114;SDS011;6121;49.810;6.418;2022-09-21T01:01:30;14.38;;;12.90;;
12114;SDS011;6121;49.810;6.418;2022-09-21T01:03:56;13.60;;;11.73;;
12114;SDS011;6121;49.810;6.418;2022-09-21T01:06:22;14.55;;;12.93;;
12114;SDS011;6121;49.810;6.418;2022-09-21T01:08:52;10.20;;;9.18;;
12114;SDS011;6121;49.810;6.418;2022-09-21T01:14:03;11.82;;;10.50;;
12114;SDS011;6121;49.810;6.418;2022-09-21T01:16:38;12.23;;;10.65;;
12114;SDS011;6121;49.810;6.418;2022-09-21T01:27:37;12.57;;;11.07;;
12114;SDS011;6121;49.810;6.418;2022-09-21T01:30:14;18.88;;;16.92;;
12114;SDS011;6121;49.810;6.418;2022-09-21T01:35:21;14.77;;;12.90;;
12114;SDS011;6121;49.810;6.418;2022-09-21T01:37:56;14.50;;;12.73;;
12114;SDS011;6121;49.810;6.418;2022-09-21T01:40:32;17.30;;;14.63;;
12114;SDS011;6121;49.810;6.418;2022-09-21T01:43:02;13.98;;;11.68;;
12114;SDS011;6121;49.810;6.418;2022-09-21T01:45:31;16.80;;;13.68;;
12114;SDS011;6121;49.810;6.418;2022-09-21T01:48:00;13.15;;;11.00;;
12114;SDS011;6121;49.810;6.418;2022-09-21T01:50:28;21.90;;;16.87;;
12114;SDS011;6121;49.810;6.418;2022-09-21T01:53:02;14.43;;;12.73;;
12114;SDS011;6121;49.810;6.418;2022-09-21T01:55:35;22.27;;;15.10;;
12114;SDS011;6121;49.810;6.418;2022-09-21T02:00:57;15.15;;;13.55;;
12114;SDS011;6121;49.810;6.418;2022-09-21T02:05:52;17.85;;;14.30;;
12114;SDS011;6121;49.810;6.418;2022-09-21T02:08:18;12.55;;;11.25;;
12114;SDS011;6121;49.810;6.418;2022-09-21T02:10:48;16.58;;;14.52;;
12114;SDS011;6121;49.810;6.418;2022-09-21T02:13:16;27.90;;;25.52;;
12114;SDS011;6121;49.810;6.418;2022-09-21T02:15:49;25.00;;;22.75;;
12114;SDS011;6121;49.810;6.418;2022-09-21T02:24:42;19.08;;;17.10;;
12114;SDS011;6121;49.810;6.418;2022-09-21T02:29:56;14.97;;;13.40;;
12114;SDS011;6121;49.810;6.418;2022-09-21T02:32:33;18.38;;;15.27;;
12114;SDS011;6121;49.810;6.418;2022-09-21T02:38:04;12.55;;;11.25;;
12114;SDS011;6121;49.810;6.418;2022-09-21T02:43:22;18.58;;;16.75;;
12114;SDS011;6121;49.810;6.418;2022-09-21T02:45:58;21.27;;;19.17;;
12114;SDS011;6121;49.810;6.418;2022-09-21T02:48:34;18.43;;;16.47;;
12114;SDS011;6121;49.810;6.418;2022-09-21T02:51:03;20.95;;;19.00;;
12114;SDS011;6121;49.810;6.418;2022-09-21T02:53:36;27.52;;;25.33;;
12114;SDS011;6121;49.810;6.418;2022-09-21T02:56:04;19.95;;;18.25;;
12114;SDS011;6121;49.810;6.418;2022-09-21T02:58:37;20.17;;;18.35;;
12114;SDS011;6121;49.810;6.418;2022-09-21T03:01:08;19.38;;;17.67;;
12114;SDS011;6121;49.810;6.418;2022-09-21T03:03:35;20.58;;;18.83;;
12114;SDS011;6121;49.810;6.418;2022-09-21T03:06:01;23.27;;;21.20;;
12114;SDS011;6121;49.810;6.418;2022-09-21T03:08:27;19.58;;;18.02;;
12114;SDS011;6121;49.810;6.418;2022-09-21T03:10:54;17.83;;;16.15;;
12114;SDS011;6121;49.810;6.418;2022-09-21T03:13:21;23.58;;;21.63;;
12114;SDS011;6121;49.810;6.418;2022-09-21T03:15:47;16.48;;;14.80;;
12114;SDS011;6121;49.810;6.418;2022-09-21T03:18:13;11.30;;;10.20;;
12114;SDS011;6121;49.810;6.418;2022-09-21T03:20:39;22.48;;;16.48;;
12114;SDS011;6121;49.810;6.418;2022-09-21T03:23:11;13.15;;;10.80;;
12114;SDS011;6121;49.810;6.418;2022-09-21T03:25:37;15.68;;;12.75;;
12114;SDS011;6121;49.810;6.418;2022-09-21T03:28:03;9.95;;;8.93;;
12114;SDS011;6121;49.810;6.418;2022-09-21T03:30:29;13.45;;;10.20;;
12114;SDS011;6121;49.810;6.418;2022-09-21T03:32:56;10.70;;;8.80;;
12114;SDS011;6121;49.810;6.418;2022-09-21T03:35:22;17.58;;;13.00;;
12114;SDS011;6121;49.810;6.418;2022-09-21T03:37:50;12.67;;;9.77;;
12114;SDS011;6121;49.810;6.418;2022-09-21T03:40:16;20.27;;;12.90;;
12114;SDS011;6121;49.810;6.418;2022-09-21T03:42:43;13.35;;;11.25;;
12114;SDS011;6121;49.810;6.418;2022-09-21T03:45:09;15.15;;;12.38;;
12114;SDS011;6121;49.810;6.418;2022-09-21T03:47:36;11.85;;;10.25;;
12114;SDS011;6121;49.810;6.418;2022-09-21T03:50:03;14.15;;;11.65;;
12114;SDS011;6121;49.810;6.418;2022-09-21T03:52:30;12.05;;;10.23;;
12114;SDS011;6121;49.810;6.418;2022-09-21T03:54:56;17.03;;;12.67;;
12114;SDS011;6121;49.810;6.418;2022-09-21T03:57:22;13.10;;;10.83;;
12114;SDS011;6121;49.810;6.418;2022-09-21T03:59:47;15.47;;;12.03;;
12114;SDS011;6121;49.810;6.418;2022-09-21T04:02:13;12.23;;;10.27;;
12114;SDS011;6121;49.810;6.418;2022-09-21T04:04:39;10.65;;;9.27;;
12114;SDS011;6121;49.810;6.418;2022-09-21T04:07:05;11.95;;;10.10;;
12114;SDS011;6121;49.810;6.418;2022-09-21T04:09:31;14.35;;;11.20;;
12114;SDS011;6121;49.810;6.418;2022-09-21T04:11:56;17.37;;;12.87;;
12114;SDS011;6121;49.810;6.418;2022-09-21T04:14:22;12.83;;;11.50;;
12114;SDS011;6121;49.810;6.418;2022-09-21T04:16:48;15.13;;;12.43;;
12114;SDS011;6121;49.810;6.418;2022-09-21T04:19:15;16.00;;;12.65;;
12114;SDS011;6121;49.810;6.418;2022-09-21T04:21:42;11.82;;;9.27;;
12114;SDS011;6121;49.810;6.418;2022-09-21T04:24:07;14.05;;;11.20;;
12114;SDS011;6121;49.810;6.418;2022-09-21T04:26:33;13.57;;;9.63;;
12114;SDS011;6121;49.810;6.418;2022-09-21T04:28:59;15.18;;;11.05;;
12114;SDS011;6121;49.810;6.418;2022-09-21T04:31:25;16.85;;;9.65;;
12114;SDS011;6121;49.810;6.418;2022-09-21T04:33:52;13.73;;;9.45;;
12114;SDS011;6121;49.810;6.418;2022-09-21T04:36:20;23.10;;;11.95;;
12114;SDS011;6121;49.810;6.418;2022-09-21T04:38:47;13.75;;;10.00;;
12114;SDS011;6121;49.810;6.418;2022-09-21T04:41:13;15.98;;;10.68;;
12114;SDS011;6121;49.810;6.418;2022-09-21T04:43:40;12.75;;;9.82;;
12114;SDS011;6121;49.810;6.418;2022-09-21T04:46:08;16.13;;;9.23;;
12114;SDS011;6121;49.810;6.418;2022-09-21T04:48:35;15.30;;;10.00;;
12114;SDS011;6121;49.810;6.418;2022-09-21T04:51:01;12.13;;;8.80;;
12114;SDS011;6121;49.810;6.418;2022-09-21T04:53:27;12.27;;;9.18;;
12114;SDS011;6121;49.810;6.418;2022-09-21T04:55:53;21.38;;;11.77;;
12114;SDS011;6121;49.810;6.418;2022-09-21T04:58:19;15.23;;;11.38;;
12114;SDS011;6121;49.810;6.418;2022-09-21T05:00:48;13.25;;;9.77;;
12114;SDS011;6121;49.810;6.418;2022-09-21T05:03:15;11.40;;;8.75;;
12114;SDS011;6121;49.810;6.418;2022-09-21T05:05:45;28.15;;;14.02;;
12114;SDS011;6121;49.810;6.418;2022-09-21T05:08:15;8.82;;;7.75;;
12114;SDS011;6121;49.810;6.418;2022-09-21T05:10:42;15.10;;;10.85;;
12114;SDS011;6121;49.810;6.418;2022-09-21T05:13:08;13.52;;;10.02;;
12114;SDS011;6121;49.810;6.418;2022-09-21T05:15:35;18.30;;;11.70;;
12114;SDS011;6121;49.810;6.418;2022-09-21T05:18:03;16.15;;;9.52;;
12114;SDS011;6121;49.810;6.418;2022-09-21T05:20:28;16.93;;;11.90;;
12114;SDS011;6121;49.810;6.418;2022-09-21T05:22:54;12.73;;;9.87;;
12114;SDS011;6121;49.810;6.418;2022-09-21T05:25:20;13.30;;;9.93;;
12114;SDS011;6121;49.810;6.418;2022-09-21T05:27:45;11.87;;;8.33;;
12114;SDS011;6121;49.810;6.418;2022-09-21T05:30:11;13.23;;;9.33;;
12114;SDS011;6121;49.810;6.418;2022-09-21T05:32:40;12.93;;;9.40;;
12114;SDS011;6121;49.810;6.418;2022-09-21T05:40:43;20.00;;;12.05;;
12114;SDS011;6121;49.810;6.418;2022-09-21T05:43:11;11.93;;;9.75;;
12114;SDS011;6121;49.810;6.418;2022-09-21T05:45:38;26.88;;;16.25;;
12114;SDS011;6121;49.810;6.418;2022-09-21T06:04:09;10.82;;;9.10;;
12114;SDS011;6121;49.810;6.418;2022-09-21T06:06:38;12.32;;;9.50;;
12114;SDS011;6121;49.810;6.418;2022-09-21T06:09:03;17.52;;;13.00;;
12114;SDS011;6121;49.810;6.418;2022-09-21T06:11:29;12.80;;;9.55;;
12114;SDS011;6121;49.810;6.418;2022-09-21T06:13:55;18.50;;;10.85;;
12114;SDS011;6121;49.810;6.418;2022-09-21T06:16:21;14.48;;;10.27;;
12114;SDS011;6121;49.810;6.418;2022-09-21T06:18:46;14.27;;;11.33;;
12114;SDS011;6121;49.810;6.418;2022-09-21T06:21:12;13.93;;;10.87;;
12114;SDS011;6121;49.810;6.418;2022-09-21T06:23:37;17.00;;;10.77;;
12114;SDS011;6121;49.810;6.418;2022-09-21T06:26:03;18.07;;;11.00;;
12114;SDS011;6121;49.810;6.418;2022-09-21T06:28:29;14.27;;;10.15;;
12114;SDS011;6121;49.810;6.418;2022-09-21T06:30:55;16.33;;;10.98;;
12114;SDS011;6121;49.810;6.418;2022-09-21T06:33:21;21.88;;;12.85;;
12114;SDS011;6121;49.810;6.418;2022-09-21T06:35:54;22.42;;;13.95;;
12114;SDS011;6121;49.810;6.418;2022-09-21T06:38:22;17.63;;;12.43;;
12114;SDS011;6121;49.810;6.418;2022-09-21T06:40:48;13.85;;;10.18;;
12114;SDS011;6121;49.810;6.418;2022-09-21T06:43:15;13.27;;;9.80;;
12114;SDS011;6121;49.810;6.418;2022-09-21T06:45:41;21.88;;;13.45;;
12114;SDS011;6121;49.810;6.418;2022-09-21T06:48:07;18.83;;;10.05;;
12114;SDS011;6121;49.810;6.418;2022-09-21T06:50:33;31.42;;;16.00;;
12114;SDS011;6121;49.810;6.418;2022-09-21T06:52:59;20.90;;;12.43;;
12114;SDS011;6121;49.810;6.418;2022-09-21T06:55:25;30.48;;;14.70;;
12114;SDS011;6121;49.810;6.418;2022-09-21T06:57:51;12.60;;;10.48;;
12114;SDS011;6121;49.810;6.418;2022-09-21T07:00:17;15.17;;;11.57;;
12114;SDS011;6121;49.810;6.418;2022-09-21T07:02:42;15.23;;;10.23;;
12114;SDS011;6121;49.810;6.418;2022-09-21T07:05:09;16.77;;;10.93;;
12114;SDS011;6121;49.810;6.418;2022-09-21T07:07:34;15.13;;;9.43;;
12114;SDS011;6121;49.810;6.418;2022-09-21T07:10:00;12.13;;;9.97;;
12114;SDS011;6121;49.810;6.418;2022-09-21T07:12:29;14.35;;;9.73;;
12114;SDS011;6121;49.810;6.418;2022-09-21T07:14:58;11.32;;;9.63;;
12114;SDS011;6121;49.810;6.418;2022-09-21T07:17:24;13.38;;;10.05;;
12114;SDS011;6121;49.810;6.418;2022-09-21T07:19:51;13.27;;;10.80;;
12114;SDS011;6121;49.810;6.418;2022-09-21T07:22:16;18.70;;;11.73;;
12114;SDS011;6121;49.810;6.418;2022-09-21T07:24:42;11.37;;;9.20;;
12114;SDS011;6121;49.810;6.418;2022-09-21T07:27:07;9.67;;;8.53;;
12114;SDS011;6121;49.810;6.418;2022-09-21T07:29:33;16.50;;;10.03;;
12114;SDS011;6121;49.810;6.418;2022-09-21T07:31:58;8.13;;;7.17;;
12114;SDS011;6121;49.810;6.418;2022-09-21T07:34:24;9.23;;;6.60;;
12114;SDS011;6121;49.810;6.418;2022-09-21T07:36:50;14.00;;;9.43;;
12114;SDS011;6121;49.810;6.418;2022-09-21T07:39:15;13.10;;;8.77;;
12114;SDS011;6121;49.810;6.418;2022-09-21T07:41:41;21.83;;;12.93;;
12114;SDS011;6121;49.810;6.418;2022-09-21T07:44:06;15.07;;;9.20;;
12114;SDS011;6121;49.810;6.418;2022-09-21T07:46:32;18.93;;;10.10;;
12114;SDS011;6121;49.810;6.418;2022-09-21T07:48:58;18.17;;;9.70;;
12114;SDS011;6121;49.810;6.418;2022-09-21T07:51:24;17.67;;;11.23;;
12114;SDS011;6121;49.810;6.418;2022-09-21T07:53:53;18.30;;;9.37;;
12114;SDS011;6121;49.810;6.418;2022-09-21T07:56:22;17.08;;;9.73;;
12114;SDS011;6121;49.810;6.418;2022-09-21T07:58:48;10.65;;;7.57;;
12114;SDS011;6121;49.810;6.418;2022-09-21T08:01:36;12.87;;;9.33;;
12114;SDS011;6121;49.810;6.418;2022-09-21T08:04:04;11.98;;;9.90;;
12114;SDS011;6121;49.810;6.418;2022-09-21T08:06:35;14.20;;;10.65;;
12114;SDS011;6121;49.810;6.418;2022-09-21T08:09:03;13.00;;;10.38;;
12114;SDS011;6121;49.810;6.418;2022-09-21T08:11:30;11.67;;;8.93;;
12114;SDS011;6121;49.810;6.418;2022-09-21T08:13:58;13.77;;;11.05;;
12114;SDS011;6121;49.810;6.418;2022-09-21T08:16:25;14.35;;;10.45;;
12114;SDS011;6121;49.810;6.418;2022-09-21T08:18:52;13.27;;;11.18;;
12114;SDS011;6121;49.810;6.418;2022-09-21T08:21:19;13.73;;;10.52;;
12114;SDS011;6121;49.810;6.418;2022-09-21T08:23:44;14.68;;;10.85;;
12114;SDS011;6121;49.810;6.418;2022-09-21T08:26:13;24.17;;;13.57;;
12114;SDS011;6121;49.810;6.418;2022-09-21T08:28:47;16.77;;;12.63;;
12114;SDS011;6121;49.810;6.418;2022-09-21T08:31:14;14.45;;;12.30;;
12114;SDS011;6121;49.810;6.418;2022-09-21T08:33:42;11.70;;;10.43;;
12114;SDS011;6121;49.810;6.418;2022-09-21T08:36:08;15.60;;;10.77;;
12114;SDS011;6121;49.810;6.418;2022-09-21T08:38:35;16.08;;;10.80;;
12114;SDS011;6121;49.810;6.418;2022-09-21T08:41:13;13.05;;;11.45;;
12114;SDS011;6121;49.810;6.418;2022-09-21T08:43:43;18.17;;;11.73;;
12114;SDS011;6121;49.810;6.418;2022-09-21T08:46:14;16.07;;;12.37;;
12114;SDS011;6121;49.810;6.418;2022-09-21T08:48:55;13.43;;;11.63;;
12114;SDS011;6121;49.810;6.418;2022-09-21T08:51:34;17.48;;;11.60;;
12114;SDS011;6121;49.810;6.418;2022-09-21T08:54:12;19.83;;;13.90;;
12114;SDS011;6121;49.810;6.418;2022-09-21T08:56:43;19.45;;;12.88;;
12114;SDS011;6121;49.810;6.418;2022-09-21T08:59:11;16.05;;;12.45;;
12114;SDS011;6121;49.810;6.418;2022-09-21T09:09:39;25.13;;;14.67;;
12114;SDS011;6121;49.810;6.418;2022-09-21T09:12:17;21.05;;;12.45;;
12114;SDS011;6121;49.810;6.418;2022-09-21T09:15:18;11.17;;;10.00;;
12114;SDS011;6121;49.810;6.418;2022-09-21T09:18:07;13.43;;;11.95;;
12114;SDS011;6121;49.810;6.418;2022-09-21T09:20:38;18.40;;;13.48;;
12114;SDS011;6121;49.810;6.418;2022-09-21T09:25:42;18.17;;;12.48;;
12114;SDS011;6121;49.810;6.418;2022-09-21T09:28:52;12.00;;;10.18;;
12114;SDS011;6121;49.810;6.418;2022-09-21T09:31:20;11.95;;;9.95;;
12114;SDS011;6121;49.810;6.418;2022-09-21T09:33:58;14.85;;;11.88;;
12114;SDS011;6121;49.810;6.418;2022-09-21T09:36:37;9.45;;;7.25;;
12114;SDS011;6121;49.810;6.418;2022-09-21T09:39:09;10.23;;;8.15;;
12114;SDS011;6121;49.810;6.418;2022-09-21T09:41:41;9.57;;;7.18;;
12114;SDS011;6121;49.810;6.418;2022-09-21T09:44:30;10.87;;;7.47;;
12114;SDS011;6121;49.810;6.418;2022-09-21T09:52:33;11.50;;;7.90;;
12114;SDS011;6121;49.810;6.418;2022-09-21T09:55:00;8.38;;;7.15;;
12114;SDS011;6121;49.810;6.418;2022-09-21T09:57:46;13.82;;;11.52;;
12114;SDS011;6121;49.810;6.418;2022-09-21T10:00:13;23.53;;;12.17;;
12114;SDS011;6121;49.810;6.418;2022-09-21T10:02:45;21.40;;;12.30;;
12114;SDS011;6121;49.810;6.418;2022-09-21T10:05:20;18.38;;;12.38;;
12114;SDS011;6121;49.810;6.418;2022-09-21T10:07:57;19.05;;;11.75;;
12114;SDS011;6121;49.810;6.418;2022-09-21T10:13:24;16.93;;;12.47;;
12114;SDS011;6121;49.810;6.418;2022-09-21T10:18:25;22.15;;;19.50;;
12114;SDS011;6121;49.810;6.418;2022-09-21T10:20:59;20.38;;;18.00;;
12114;SDS011;6121;49.810;6.418;2022-09-21T10:23:41;31.95;;;29.20;;
12114;SDS011;6121;49.810;6.418;2022-09-21T10:26:12;33.55;;;30.95;;
12114;SDS011;6121;49.810;6.418;2022-09-21T10:28:54;54.28;;;50.38;;
12114;SDS011;6121;49.810;6.418;2022-09-21T10:31:23;54.03;;;50.35;;
12114;SDS011;6121;49.810;6.418;2022-09-21T10:33:53;65.47;;;61.83;;
12114;SDS011;6121;49.810;6.418;2022-09-21T10:36:30;66.20;;;61.85;;
12114;SDS011;6121;49.810;6.418;2022-09-21T10:39:15;98.55;;;93.38;;
12114;SDS011;6121;49.810;6.418;2022-09-21T10:41:47;58.42;;;54.55;;
12114;SDS011;6121;49.810;6.418;2022-09-21T10:44:15;73.93;;;69.78;;
12114;SDS011;6121;49.810;6.418;2022-09-21T10:46:43;78.73;;;74.30;;
12114;SDS011;6121;49.810;6.418;2022-09-21T10:49:20;97.33;;;92.03;;
12114;SDS011;6121;49.810;6.418;2022-09-21T10:51:52;163.63;;;155.82;;
12114;SDS011;6121;49.810;6.418;2022-09-21T10:54:38;192.77;;;183.70;;
12114;SDS011;6121;49.810;6.418;2022-09-21T10:57:09;99.45;;;93.93;;
12114;SDS011;6121;49.810;6.418;2022-09-21T10:59:40;91.38;;;86.00;;
12114;SDS011;6121;49.810;6.418;2022-09-21T11:05:00;144.93;;;138.20;;
12114;SDS011;6121;49.810;6.418;2022-09-21T11:07:47;136.20;;;129.75;;
12114;SDS011;6121;49.810;6.418;2022-09-21T11:10:29;120.72;;;114.22;;
12114;SDS011;6121;49.810;6.418;2022-09-21T11:16:02;201.88;;;192.07;;
12114;SDS011;6121;49.810;6.418;2022-09-21T11:21:56;68.93;;;64.50;;
12114;SDS011;6121;49.810;6.418;2022-09-21T11:27:26;77.47;;;72.82;;
12114;SDS011;6121;49.810;6.418;2022-09-21T11:35:42;150.60;;;141.77;;
12114;SDS011;6121;49.810;6.418;2022-09-21T11:38:36;133.88;;;126.88;;
12114;SDS011;6121;49.810;6.418;2022-09-21T11:43:59;263.58;;;252.52;;
12114;SDS011;6121;49.810;6.418;2022-09-21T11:53:04;204.27;;;195.35;;
12114;SDS011;6121;49.810;6.418;2022-09-21T12:07:02;98.97;;;93.63;;
12114;SDS011;6121;49.810;6.418;2022-09-21T12:14:55;42.13;;;38.85;;
12114;SDS011;6121;49.810;6.418;2022-09-21T12:23:26;120.20;;;113.80;;
12114;SDS011;6121;49.810;6.418;2022-09-21T12:26:02;74.75;;;70.38;;
12114;SDS011;6121;49.810;6.418;2022-09-21T12:28:30;145.98;;;139.05;;
12114;SDS011;6121;49.810;6.418;2022-09-21T12:31:04;127.83;;;121.57;;
12114;SDS011;6121;49.810;6.418;2022-09-21T12:33:40;103.05;;;97.53;;
12114;SDS011;6121;49.810;6.418;2022-09-21T12:36:12;87.22;;;81.05;;
12114;SDS011;6121;49.810;6.418;2022-09-21T12:44:25;103.82;;;97.65;;
12114;SDS011;6121;49.810;6.418;2022-09-21T12:47:16;119.22;;;111.93;;
12114;SDS011;6121;49.810;6.418;2022-09-21T12:49:51;162.35;;;153.77;;
12114;SDS011;6121;49.810;6.418;2022-09-21T12:52:21;126.53;;;119.72;;
12114;SDS011;6121;49.810;6.418;2022-09-21T12:57:48;150.65;;;141.60;;
12114;SDS011;6121;49.810;6.418;2022-09-21T13:00:25;109.78;;;103.47;;
12114;SDS011;6121;49.810;6.418;2022-09-21T13:08:40;149.25;;;141.30;;
12114;SDS011;6121;49.810;6.418;2022-09-21T13:11:08;142.80;;;135.85;;
12114;SDS011;6121;49.810;6.418;2022-09-21T13:13:39;160.00;;;151.85;;
12114;SDS011;6121;49.810;6.418;2022-09-21T13:19:03;162.30;;;154.97;;
12114;SDS011;6121;49.810;6.418;2022-09-21T13:21:39;180.57;;;172.00;;
12114;SDS011;6121;49.810;6.418;2022-09-21T13:24:21;123.55;;;116.75;;
12114;SDS011;6121;49.810;6.418;2022-09-21T13:26:57;207.55;;;196.80;;
12114;SDS011;6121;49.810;6.418;2022-09-21T13:29:35;146.40;;;138.65;;
12114;SDS011;6121;49.810;6.418;2022-09-21T13:34:36;212.53;;;200.77;;
12114;SDS011;6121;49.810;6.418;2022-09-21T13:42:43;262.40;;;250.93;;
12114;SDS011;6121;49.810;6.418;2022-09-21T13:47:49;326.05;;;312.20;;
12114;SDS011;6121;49.810;6.418;2022-09-21T13:50:21;331.35;;;317.25;;
12114;SDS011;6121;49.810;6.418;2022-09-21T13:52:59;277.67;;;266.40;;
12114;SDS011;6121;49.810;6.418;2022-09-21T13:55:29;171.53;;;162.80;;
12114;SDS011;6121;49.810;6.418;2022-09-21T13:57:59;346.15;;;331.35;;
12114;SDS011;6121;49.810;6.418;2022-09-21T14:00:51;274.30;;;261.27;;
12114;SDS011;6121;49.810;6.418;2022-09-21T14:03:37;263.73;;;251.70;;
12114;SDS011;6121;49.810;6.418;2022-09-21T14:08:38;265.37;;;252.93;;
12114;SDS011;6121;49.810;6.418;2022-09-21T14:11:14;355.10;;;340.15;;
12114;SDS011;6121;49.810;6.418;2022-09-21T14:13:47;281.00;;;269.30;;
12114;SDS011;6121;49.810;6.418;2022-09-21T14:19:01;210.30;;;201.43;;
12114;SDS011;6121;49.810;6.418;2022-09-21T14:24:47;271.03;;;259.20;;
12114;SDS011;6121;49.810;6.418;2022-09-21T14:30:15;212.25;;;202.90;;
12114;SDS011;6121;49.810;6.418;2022-09-21T14:32:48;210.10;;;198.32;;
12114;SDS011;6121;49.810;6.418;2022-09-21T14:35:31;218.80;;;207.55;;
12114;SDS011;6121;49.810;6.418;2022-09-21T14:38:06;294.77;;;281.05;;
12114;SDS011;6121;49.810;6.418;2022-09-21T14:41:02;281.58;;;269.02;;
12114;SDS011;6121;49.810;6.418;2022-09-21T14:43:32;326.13;;;312.13;;
12114;SDS011;6121;49.810;6.418;2022-09-21T14:57:06;238.87;;;228.17;;
12114;SDS011;6121;49.810;6.418;2022-09-21T15:02:20;169.90;;;161.80;;
12114;SDS011;6121;49.810;6.418;2022-09-21T15:07:41;237.10;;;225.57;;
12114;SDS011;6121;49.810;6.418;2022-09-21T15:19:26;198.15;;;188.52;;
12114;SDS011;6121;49.810;6.418;2022-09-21T15:22:08;205.07;;;195.23;;
12114;SDS011;6121;49.810;6.418;2022-09-21T15:24:51;175.88;;;167.55;;
12114;SDS011;6121;49.810;6.418;2022-09-21T15:27:20;184.70;;;175.52;;
12114;SDS011;6121;49.810;6.418;2022-09-21T15:29:52;170.95;;;162.38;;
12114;SDS011;6121;49.810;6.418;2022-09-21T15:35:06;220.97;;;210.57;;
12114;SDS011;6121;49.810;6.418;2022-09-21T15:37:39;239.63;;;227.18;;
12114;SDS011;6121;49.810;6.418;2022-09-21T15:40:06;225.00;;;214.17;;
12114;SDS011;6121;49.810;6.418;2022-09-21T15:45:26;202.43;;;193.00;;
12114;SDS011;6121;49.810;6.418;2022-09-21T15:47:53;197.43;;;188.43;;
12114;SDS011;6121;49.810;6.418;2022-09-21T15:50:20;224.03;;;213.40;;
12114;SDS011;6121;49.810;6.418;2022-09-21T15:52:51;309.92;;;296.45;;
12114;SDS011;6121;49.810;6.418;2022-09-21T15:55:23;248.65;;;237.43;;
12114;SDS011;6121;49.810;6.418;2022-09-21T15:57:50;288.70;;;276.20;;
12114;SDS011;6121;49.810;6.418;2022-09-21T16:00:21;244.18;;;231.68;;
12114;SDS011;6121;49.810;6.418;2022-09-21T16:05:51;230.60;;;218.95;;
12114;SDS011;6121;49.810;6.418;2022-09-21T16:08:20;226.13;;;216.05;;
12114;SDS011;6121;49.810;6.418;2022-09-21T16:13:41;178.75;;;170.98;;
12114;SDS011;6121;49.810;6.418;2022-09-21T16:16:26;163.38;;;155.60;;
12114;SDS011;6121;49.810;6.418;2022-09-21T16:18:53;158.05;;;150.45;;
12114;SDS011;6121;49.810;6.418;2022-09-21T16:23:52;164.80;;;157.00;;
12114;SDS011;6121;49.810;6.418;2022-09-21T16:26:26;172.68;;;164.48;;
12114;SDS011;6121;49.810;6.418;2022-09-21T16:29:22;179.83;;;171.43;;
12114;SDS011;6121;49.810;6.418;2022-09-21T16:34:44;149.57;;;141.95;;
12114;SDS011;6121;49.810;6.418;2022-09-21T16:39:52;186.95;;;178.15;;
12114;SDS011;6121;49.810;6.418;2022-09-21T16:42:19;148.48;;;141.23;;
12114;SDS011;6121;49.810;6.418;2022-09-21T16:44:46;178.43;;;169.90;;
12114;SDS011;6121;49.810;6.418;2022-09-21T16:47:16;152.55;;;145.30;;
12114;SDS011;6121;49.810;6.418;2022-09-21T16:49:49;183.23;;;175.20;;
12114;SDS011;6121;49.810;6.418;2022-09-21T16:52:15;177.98;;;169.57;;
12114;SDS011;6121;49.810;6.418;2022-09-21T16:54:42;192.38;;;183.68;;
12114;SDS011;6121;49.810;6.418;2022-09-21T16:57:09;83.03;;;78.70;;
12114;SDS011;6121;49.810;6.418;2022-09-21T16:59:37;101.57;;;96.25;;
12114;SDS011;6121;49.810;6.418;2022-09-21T17:02:02;111.53;;;105.85;;
12114;SDS011;6121;49.810;6.418;2022-09-21T17:04:29;118.55;;;112.78;;
12114;SDS011;6121;49.810;6.418;2022-09-21T17:06:56;98.63;;;93.88;;
12114;SDS011;6121;49.810;6.418;2022-09-21T17:09:30;78.03;;;73.70;;
12114;SDS011;6121;49.810;6.418;2022-09-21T17:12:12;73.50;;;68.90;;
12114;SDS011;6121;49.810;6.418;2022-09-21T17:14:39;95.32;;;90.25;;
12114;SDS011;6121;49.810;6.418;2022-09-21T17:19:37;104.35;;;98.68;;
12114;SDS011;6121;49.810;6.418;2022-09-21T17:22:04;72.43;;;67.65;;
12114;SDS011;6121;49.810;6.418;2022-09-21T17:24:31;86.47;;;82.03;;
12114;SDS011;6121;49.810;6.418;2022-09-21T17:26:57;69.65;;;65.43;;
12114;SDS011;6121;49.810;6.418;2022-09-21T17:29:23;47.22;;;43.78;;
12114;SDS011;6121;49.810;6.418;2022-09-21T17:31:52;50.88;;;47.45;;
12114;SDS011;6121;49.810;6.418;2022-09-21T17:34:24;42.90;;;40.20;;
12114;SDS011;6121;49.810;6.418;2022-09-21T17:36:51;42.95;;;39.55;;
12114;SDS011;6121;49.810;6.418;2022-09-21T17:39:18;45.42;;;42.42;;
12114;SDS011;6121;49.810;6.418;2022-09-21T17:41:52;41.47;;;37.72;;
12114;SDS011;6121;49.810;6.418;2022-09-21T17:47:26;18.70;;;16.77;;
12114;SDS011;6121;49.810;6.418;2022-09-21T17:49:53;16.17;;;14.57;;
12114;SDS011;6121;49.810;6.418;2022-09-21T17:52:23;21.57;;;19.67;;
12114;SDS011;6121;49.810;6.418;2022-09-21T17:55:10;16.88;;;15.30;;
12114;SDS011;6121;49.810;6.418;2022-09-21T18:03:29;16.48;;;14.82;;
12114;SDS011;6121;49.810;6.418;2022-09-21T18:05:56;23.95;;;16.48;;
12114;SDS011;6121;49.810;6.418;2022-09-21T18:08:26;14.05;;;12.63;;
12114;SDS011;6121;49.810;6.418;2022-09-21T18:14:04;30.57;;;28.20;;
12114;SDS011;6121;49.810;6.418;2022-09-21T18:19:26;22.90;;;20.73;;
12114;SDS011;6121;49.810;6.418;2022-09-21T18:21:57;17.05;;;15.35;;
12114;SDS011;6121;49.810;6.418;2022-09-21T18:24:38;24.77;;;19.58;;
12114;SDS011;6121;49.810;6.418;2022-09-21T18:27:04;22.27;;;20.48;;
12114;SDS011;6121;49.810;6.418;2022-09-21T18:29:30;21.20;;;19.20;;
12114;SDS011;6121;49.810;6.418;2022-09-21T18:32:00;15.43;;;13.93;;
12114;SDS011;6121;49.810;6.418;2022-09-21T18:40:35;17.23;;;13.90;;
12114;SDS011;6121;49.810;6.418;2022-09-21T18:43:17;11.23;;;10.02;;
12114;SDS011;6121;49.810;6.418;2022-09-21T18:46:12;24.00;;;15.65;;